Time;durP1;ratioP1;P1;durP2;ratioP2;P2;SDS_P1;SDS_P2;PMS_P1;PMS_P2;Temp;Humidity;BMP_temperature;BMP_pressure;BME280_temperature;BME280_humidity;BME280_pressure;Samples;Min_cycle;Max_cycle;Signal;HPM_P1;HPM_P2
2023/08/28 00:01:31;;;;;;;15.20;8.55;;;;;;;28.46;48.71;98668.13;4350708;32;33875;-77
2023/08/28 00:03:59;;;;;;;12.45;7.37;;;;;;;28.44;49.06;98663.97;4359621;32;32311;-78
2023/08/28 00:06:27;;;;;;;11.02;6.93;;;;;;;28.34;49.56;98662.72;4354288;32;34980;-79
2023/08/28 00:08:54;;;;;;;12.48;7.37;;;;;;;28.37;49.71;98658.63;4357934;32;33798;-79
2023/08/28 00:11:22;;;;;;;9.23;6.60;;;;;;;28.50;49.48;98660.19;4359325;32;33684;-79
2023/08/28 00:13:50;;;;;;;9.32;6.57;;;;;;;28.46;49.70;98662.63;4355898;32;33495;-81
2023/08/28 00:16:17;;;;;;;11.52;6.80;;;;;;;28.35;50.14;98671.81;4348118;32;32661;-80
2023/08/28 00:18:45;;;;;;;8.32;5.25;;;;;;;28.36;50.27;98661.66;4354200;32;34865;-81
2023/08/28 00:21:13;;;;;;;9.50;5.62;;;;;;;28.25;50.82;98664.28;4341208;32;34049;-81
2023/08/28 00:23:40;;;;;;;15.05;6.95;;;;;;;28.03;51.54;98658.75;4353856;32;34396;-89
2023/08/28 00:26:08;;;;;;;8.07;4.78;;;;;;;28.01;51.53;98654.59;4357020;32;33903;-83
2023/08/28 00:28:35;;;;;;;9.48;5.57;;;;;;;28.11;51.36;98662.97;4357566;32;35028;-80
2023/08/28 00:31:04;;;;;;;6.72;3.78;;;;;;;27.89;51.98;98660.19;4355109;32;33986;-81
2023/08/28 00:33:32;;;;;;;9.07;4.50;;;;;;;27.82;52.22;98652.13;4359398;32;33402;-82
2023/08/28 00:36:01;;;;;;;7.90;4.35;;;;;;;28.04;51.68;98645.84;4355746;32;33896;-82
2023/08/28 00:38:28;;;;;;;10.80;6.95;;;;;;;28.14;51.29;98645.13;4357101;32;33355;-75
2023/08/28 00:40:56;;;;;;;10.18;4.78;;;;;;;28.01;51.60;98641.66;4353442;32;33672;-85
2023/08/28 00:43:23;;;;;;;8.95;5.85;;;;;;;27.86;52.01;98642.31;4358490;32;34878;-83
2023/08/28 00:45:51;;;;;;;9.90;4.43;;;;;;;27.91;51.83;98641.53;4358127;32;34806;-80
2023/08/28 00:48:20;;;;;;;6.15;3.78;;;;;;;27.97;51.72;98637.78;4350203;32;35469;-80
2023/08/28 00:50:48;;;;;;;10.38;4.68;;;;;;;27.84;52.20;98638.97;4318778;33;33684;-81
2023/08/28 00:53:16;;;;;;;9.20;5.93;;;;;;;27.94;51.83;98642.97;4318871;33;33161;-80
2023/08/28 00:55:44;;;;;;;7.03;4.35;;;;;;;28.12;51.41;98644.53;4316808;33;34497;-84
2023/08/28 00:58:12;;;;;;;10.95;5.47;;;;;;;27.98;51.81;98646.84;4315314;33;33729;-84
2023/08/28 01:00:41;;;;;;;10.80;4.22;;;;;;;28.05;51.48;98644.75;4320984;33;33786;-85
2023/08/28 01:03:09;;;;;;;6.25;4.20;;;;;;;27.96;51.73;98643.50;4315402;33;33599;-83
2023/08/28 01:06:04;;;;;;;7.85;4.97;;;;;;;28.03;51.51;98644.19;4320966;33;34928;-82
2023/08/28 01:08:36;;;;;;;8.68;3.90;;;;;;;27.96;51.69;98643.50;4317802;33;34737;-81
2023/08/28 01:11:12;;;;;;;8.23;4.50;;;;;;;27.93;51.74;98644.03;4324279;32;35485;-80
2023/08/28 01:13:51;;;;;;;7.15;4.05;;;;;;;27.67;52.49;98629.06;4325715;32;34282;-80
2023/08/28 01:16:21;;;;;;;7.37;3.92;;;;;;;27.52;52.82;98629.69;4327109;32;33725;-79
2023/08/28 01:18:50;;;;;;;9.45;4.07;;;;;;;27.66;52.42;98625.47;4324661;32;34040;-79
2023/08/28 01:21:18;;;;;;;11.30;4.57;;;;;;;27.77;52.12;98623.72;4318442;33;34951;-78
2023/08/28 01:23:58;;;;;;;7.93;4.43;;;;;;;27.70;52.35;98623.06;4341451;32;33708;-74
2023/08/28 01:26:28;;;;;;;6.57;3.80;;;;;;;27.33;53.25;98624.44;4342344;32;34800;-74
2023/08/28 01:28:56;;;;;;;7.55;4.15;;;;;;;27.29;53.54;98634.28;4345809;32;33704;-71
2023/08/28 01:31:23;;;;;;;6.18;3.83;;;;;;;27.49;52.94;98625.53;4342395;33;34190;-72
2023/08/28 01:33:52;;;;;;;6.72;3.97;;;;;;;27.37;53.48;98624.78;4344358;32;33502;-73
2023/08/28 01:36:33;;;;;;;9.13;3.72;;;;;;;27.38;53.22;98624.53;4343164;32;33784;-73
2023/08/28 01:39:08;;;;;;;6.75;4.05;;;;;;;27.48;52.94;98618.38;4350268;32;33716;-80
2023/08/28 01:41:35;;;;;;;;;;;;;;;27.55;52.75;98621.75;4345669;32;34131;-73
2023/08/28 01:44:05;;;;;;;7.43;5.03;;;;;;;27.48;52.88;98618.38;4345923;32;33938;-72
2023/08/28 01:46:33;;;;;;;6.90;3.80;;;;;;;27.09;53.97;98622.91;4352871;32;32072;-72
2023/08/28 01:49:02;;;;;;;9.05;4.85;;;;;;;26.83;54.78;98630.72;4345859;32;33910;-72
2023/08/28 01:51:30;;;;;;;14.95;4.82;;;;;;;27.20;53.74;98634.94;4359700;32;33547;-73
2023/08/28 01:53:58;;;;;;;10.65;6.60;;;;;;;26.94;54.39;98629.81;4358874;32;33308;-72
2023/08/28 01:56:26;;;;;;;7.60;4.87;;;;;;;26.76;54.88;98632.78;4337043;32;35964;-73
2023/08/28 01:58:57;;;;;;;6.28;3.45;;;;;;;26.75;55.04;98628.37;4352306;32;34164;-73
2023/08/28 02:01:26;;;;;;;6.97;3.95;;;;;;;26.87;54.71;98637.37;4346050;32;32936;-74
2023/08/28 02:03:55;;;;;;;5.78;3.78;;;;;;;27.00;54.40;98625.25;4350141;32;34892;-78
2023/08/28 02:06:23;;;;;;;6.97;4.22;;;;;;;26.99;54.35;98628.22;4352671;32;33966;-82
2023/08/28 02:08:51;;;;;;;6.50;3.45;;;;;;;27.09;53.81;98631.97;4360264;32;33901;-80
2023/08/28 02:11:19;;;;;;;10.15;5.65;;;;;;;26.87;54.58;98636.53;4349000;32;33956;-83
2023/08/28 02:13:46;;;;;;;5.78;3.00;;;;;;;26.93;54.24;98633.66;4358596;32;33818;-81
2023/08/28 02:16:15;;;;;;;7.22;3.70;;;;;;;26.84;54.51;98639.81;4358963;32;33812;-81
2023/08/28 02:18:43;;;;;;;7.78;4.35;;;;;;;26.95;54.07;98636.97;4358501;32;34794;-81
2023/08/28 02:21:11;;;;;;;6.32;3.37;;;;;;;27.10;53.47;98633.66;4357821;32;35320;-80
2023/08/28 02:23:39;;;;;;;6.85;3.72;;;;;;;26.96;53.82;98637.78;4359748;32;33520;-78
2023/08/28 02:26:06;;;;;;;14.85;4.53;;;;;;;26.97;53.74;98638.63;4360822;32;33972;-79
2023/08/28 02:28:34;;;;;;;8.20;4.43;;;;;;;26.37;55.40;98631.75;4357766;32;32940;-78
2023/08/28 02:31:05;;;;;;;6.97;3.87;;;;;;;26.34;55.48;98633.06;4356976;32;34187;-78
2023/08/28 02:33:32;;;;;;;5.93;3.87;;;;;;;26.80;54.01;98639.44;4348863;32;33288;-75
2023/08/28 02:36:01;;;;;;;6.32;4.03;;;;;;;26.52;54.96;98643.06;4360015;32;34461;-75
2023/08/28 02:38:29;;;;;;;7.55;4.03;;;;;;;26.47;54.78;98646.47;4358917;32;32641;-78
2023/08/28 02:41:04;;;;;;;7.72;3.62;;;;;;;26.44;55.02;98648.88;4353086;32;34106;-81
2023/08/28 02:43:32;;;;;;;7.15;4.12;;;;;;;26.35;55.22;98639.38;4359662;32;33274;-83
2023/08/28 02:46:01;;;;;;;8.10;3.42;;;;;;;26.58;54.47;98649.44;4360528;32;33464;-83
2023/08/28 02:48:28;;;;;;;6.85;4.35;;;;;;;26.56;54.48;98637.91;4358063;32;33855;-85
2023/08/28 02:50:58;;;;;;;7.28;3.47;;;;;;;26.84;53.62;98639.81;4354555;32;33850;-83
2023/08/28 02:53:25;;;;;;;8.07;4.10;;;;;;;26.84;53.35;98637.88;4346716;33;34718;-83
2023/08/28 02:56:21;;;;;;;8.25;4.43;;;;;;;26.77;53.51;98633.59;4348199;32;32471;-83
2023/08/28 02:58:49;;;;;;;8.23;4.50;;;;;;;26.68;53.78;98633.19;4359837;32;34951;-84
2023/08/28 03:01:17;;;;;;;8.13;4.72;;;;;;;26.42;54.33;98626.34;4583473;27;33696;-75
2023/08/28 03:03:46;;;;;;;6.93;3.85;;;;;;;26.65;53.74;98630.94;4364535;32;33603;-74
2023/08/28 03:06:15;;;;;;;7.72;4.40;;;;;;;26.50;54.10;98628.72;4375118;32;34741;-75
2023/08/28 03:08:42;;;;;;;8.18;3.87;;;;;;;26.70;53.52;98634.59;4375558;32;33922;-75
2023/08/28 03:11:10;;;;;;;10.05;4.03;;;;;;;26.43;54.37;98631.59;4376418;32;33969;-74
2023/08/28 03:13:38;;;;;;;8.77;4.25;;;;;;;26.18;55.16;98631.91;4374109;32;33426;-76
2023/08/28 03:16:05;;;;;;;5.95;3.80;;;;;;;26.24;54.94;98638.34;4375985;32;34671;-76
2023/08/28 03:18:33;;;;;;;13.45;4.70;;;;;;;26.20;55.05;98643.47;4376071;32;33686;-75
2023/08/28 03:21:02;;;;;;;11.05;4.50;;;;;;;26.24;54.73;98647.41;4361893;32;33865;-75
2023/08/28 03:23:30;;;;;;;8.02;4.00;;;;;;;25.99;55.55;98644.13;4375749;32;33575;-76
2023/08/28 03:25:57;;;;;;;6.90;4.15;;;;;;;25.52;56.90;98647.72;4365450;32;33567;-75
2023/08/28 03:28:25;;;;;;;6.70;3.92;;;;;;;26.05;55.37;98645.06;4374654;32;34056;-76
2023/08/28 03:30:59;;;;;;;5.75;3.17;;;;;;;25.90;55.74;98651.03;4372201;32;34155;-76
2023/08/28 03:33:27;;;;;;;6.32;3.60;;;;;;;26.05;55.16;98650.56;4367158;32;33417;-76
2023/08/28 03:35:56;;;;;;;8.60;4.35;;;;;;;26.36;54.12;98641.06;4373615;32;33847;-75
2023/08/28 03:38:23;;;;;;;7.00;2.95;;;;;;;26.38;54.14;98641.63;4375955;32;34004;-76
2023/08/28 03:40:52;;;;;;;5.20;2.92;;;;;;;26.32;54.22;98635.19;4375351;32;33814;-77
2023/08/28 03:43:20;;;;;;;8.43;3.85;;;;;;;26.01;55.14;98644.72;4369204;32;34522;-75
2023/08/28 03:45:47;;;;;;;11.30;5.10;;;;;;;25.98;55.40;98653.44;4370925;32;33617;-75
2023/08/28 03:48:15;;;;;;;5.25;3.15;;;;;;;25.91;55.58;98663.69;4346140;32;33743;-75
2023/08/28 03:50:42;;;;;;;5.57;2.95;;;;;;;25.76;56.03;98661.41;4374050;32;34708;-74
2023/08/28 03:53:10;;;;;;;6.93;3.25;;;;;;;25.89;55.36;98663.09;4373164;32;33444;-75
2023/08/28 03:55:38;;;;;;;8.57;3.70;;;;;;;25.71;56.14;98661.28;4369635;32;33826;-75
2023/08/28 03:58:07;;;;;;;5.97;3.92;;;;;;;25.62;56.22;98665.44;4374188;32;34043;-75
2023/08/28 04:00:35;;;;;;;6.45;4.32;;;;;;;25.78;55.77;98667.50;4371392;32;35320;-75
2023/08/28 04:03:03;;;;;;;5.93;3.37;;;;;;;25.62;56.13;98669.03;4372797;32;33831;-75
2023/08/28 04:05:35;;;;;;;5.40;2.85;;;;;;;25.55;56.46;98663.69;4370335;32;33591;-71
2023/08/28 04:08:04;;;;;;;5.57;3.35;;;;;;;25.80;55.63;98659.84;4372062;32;33920;-73
2023/08/28 04:10:32;;;;;;;6.00;3.40;;;;;;;25.39;56.94;98663.53;4373569;32;35121;-71
2023/08/28 04:12:59;;;;;;;8.25;4.95;;;;;;;25.51;56.61;98667.94;4372445;32;33613;-72
2023/08/28 04:15:29;;;;;;;7.03;2.97;;;;;;;25.84;55.36;98663.78;4374971;32;34601;-75
2023/08/28 04:17:59;;;;;;;7.37;3.45;;;;;;;25.19;57.25;98670.19;4373267;32;34194;-75
2023/08/28 04:20:27;;;;;;;6.40;4.70;;;;;;;25.42;56.72;98663.88;4376768;32;33742;-75
2023/08/28 04:22:54;;;;;;;5.68;3.67;;;;;;;25.20;57.59;98668.28;4371035;32;34266;-75
2023/08/28 04:25:22;;;;;;;8.75;4.32;;;;;;;25.27;57.34;98669.84;4375126;32;33624;-76
2023/08/28 04:27:49;;;;;;;5.72;3.15;;;;;;;25.21;57.45;98668.03;4374993;32;34118;-70
2023/08/28 04:30:17;;;;;;;7.07;2.85;;;;;;;25.60;56.25;98657.47;4360515;32;34066;-70
2023/08/28 04:32:45;;;;;;;5.35;3.15;;;;;;;25.50;56.63;98657.25;4369870;32;33573;-73
2023/08/28 04:35:13;;;;;;;10.23;3.22;;;;;;;25.48;56.65;98659.37;4362251;32;33767;-72
2023/08/28 04:37:41;;;;;;;6.00;3.28;;;;;;;25.84;55.60;98660.22;4374145;32;34156;-72
2023/08/28 04:40:09;;;;;;;5.22;3.28;;;;;;;25.95;55.24;98656.66;4374976;32;34903;-70
2023/08/28 04:42:37;;;;;;;6.57;4.45;;;;;;;26.02;55.07;98647.22;4371052;32;33253;-70
2023/08/28 04:45:05;;;;;;;5.90;3.33;;;;;;;26.13;54.71;98645.53;4374300;32;34793;-70
2023/08/28 04:47:34;;;;;;;8.45;5.15;;;;;;;25.99;55.06;98644.94;4358784;32;32087;-70
2023/08/28 04:50:02;;;;;;;7.00;3.62;;;;;;;25.86;55.46;98645.22;4355609;32;33764;-74
2023/08/28 04:52:30;;;;;;;5.53;3.08;;;;;;;26.09;54.85;98638.03;4356848;32;33372;-70
2023/08/28 04:54:58;;;;;;;4.78;2.85;;;;;;;25.85;55.66;98629.03;4358832;32;33614;-70
2023/08/28 04:57:26;;;;;;;4.65;2.65;;;;;;;26.07;55.04;98630.06;4357618;32;34859;-71
2023/08/28 04:59:53;;;;;;;10.18;4.60;;;;;;;25.93;55.42;98623.97;4359257;32;35177;-71
2023/08/28 05:02:21;;;;;;;7.78;4.37;;;;;;;25.91;55.72;98625.31;4348182;32;34342;-71
2023/08/28 05:04:48;;;;;;;9.10;5.20;;;;;;;25.92;55.59;98614.09;4353564;32;34905;-70
2023/08/28 05:07:16;;;;;;;7.97;4.30;;;;;;;26.05;55.47;98614.91;4356026;32;35380;-71
2023/08/28 05:09:44;;;;;;;6.22;3.95;;;;;;;25.92;55.99;98614.09;4357537;32;34231;-71
2023/08/28 05:12:11;;;;;;;6.07;4.07;;;;;;;25.70;56.83;98604.81;4358882;32;33102;-75
2023/08/28 05:14:39;;;;;;;9.88;3.10;;;;;;;25.99;56.23;98592.03;4349341;32;33285;-72
2023/08/28 05:17:07;;;;;;;9.52;4.22;;;;;;;26.18;55.83;98598.19;4353752;32;33683;-70
2023/08/28 05:19:35;;;;;;;5.90;3.67;;;;;;;26.52;55.00;98604.63;4353078;32;34804;-73
2023/08/28 05:22:04;;;;;;;6.12;3.60;;;;;;;27.01;53.52;98610.44;4341420;33;33601;-72
2023/08/28 05:24:31;;;;;;;8.23;4.90;;;;;;;27.75;51.34;98612.97;4338068;32;33362;-72
2023/08/28 05:26:59;;;;;;;6.45;3.35;;;;;;;27.87;50.62;98615.66;4351842;32;33658;-72
2023/08/28 05:29:27;;;;;;;12.07;3.33;;;;;;;27.98;50.46;98611.94;4351648;32;33886;-73
2023/08/28 05:31:55;;;;;;;4.95;2.67;;;;;;;27.46;52.14;98617.78;4358386;32;33250;-72
2023/08/28 05:34:22;;;;;;;7.00;3.83;;;;;;;27.59;51.56;98620.16;4352880;32;33242;-72
2023/08/28 05:36:50;;;;;;;6.53;3.83;;;;;;;27.55;51.56;98613.53;4359822;32;35113;-72
2023/08/28 05:39:18;;;;;;;6.05;3.60;;;;;;;28.61;48.82;98611.59;4350320;32;33793;-71
2023/08/28 05:41:46;;;;;;;6.95;4.87;;;;;;;28.48;49.25;98624.69;4358628;32;33400;-72
2023/08/28 05:44:15;;;;;;;6.87;3.65;;;;;;;29.01;48.19;98617.50;4352751;32;33549;-70
2023/08/28 05:46:42;;;;;;;4.65;2.60;;;;;;;30.17;45.50;98607.50;4358196;32;33781;-70
2023/08/28 05:49:12;;;;;;;5.43;3.80;;;;;;;30.40;45.06;98594.34;4357506;32;35269;-70
2023/08/28 05:51:41;;;;;;;7.65;4.53;;;;;;;30.51;44.83;98590.53;4354480;32;33141;-70
2023/08/28 05:54:09;;;;;;;6.40;3.60;;;;;;;30.50;44.99;98596.31;4372458;32;33708;-70
2023/08/28 05:56:36;;;;;;;8.73;4.95;;;;;;;30.22;45.53;98594.88;4375033;32;33893;-70
2023/08/28 05:59:04;;;;;;;6.60;3.62;;;;;;;29.67;46.57;98591.56;4370453;32;33808;-70
2023/08/28 06:01:32;;;;;;;7.90;4.03;;;;;;;29.58;46.90;98598.66;4371217;32;33713;-70
2023/08/28 06:04:00;;;;;;;9.43;4.70;;;;;;;29.56;46.78;98598.06;4373631;32;34001;-70
2023/08/28 06:06:28;;;;;;;6.00;3.50;;;;;;;29.20;47.91;98593.13;4375386;32;34171;-70
2023/08/28 06:09:00;;;;;;;7.30;3.67;;;;;;;29.14;48.23;98587.84;4371964;32;32783;-71
2023/08/28 06:11:28;;;;;;;5.50;3.42;;;;;;;29.22;48.00;98584.63;4375035;32;34063;-70
2023/08/28 06:13:58;;;;;;;5.90;4.00;;;;;;;29.24;48.30;98585.19;4374032;32;35081;-71
2023/08/28 06:16:26;;;;;;;7.15;3.60;;;;;;;29.16;48.57;98578.25;4371457;32;33937;-70
2023/08/28 06:18:54;;;;;;;6.60;4.18;;;;;;;28.77;49.20;98583.13;4374272;32;33824;-71
2023/08/28 06:21:22;;;;;;;9.00;4.75;;;;;;;29.11;48.66;98582.87;4362149;32;33444;-71
2023/08/28 06:23:49;;;;;;;7.43;4.82;;;;;;;29.16;48.65;98585.69;4373531;32;34732;-71
2023/08/28 06:26:17;;;;;;;7.45;5.62;;;;;;;29.08;48.99;98591.66;4374828;32;34471;-70
2023/08/28 06:28:45;;;;;;;7.60;5.37;;;;;;;29.05;48.65;98592.19;4372230;32;33866;-71
2023/08/28 06:31:13;;;;;;;7.70;4.05;;;;;;;28.62;50.35;98586.56;4371529;32;33383;-71
2023/08/28 06:33:40;;;;;;;8.23;4.12;;;;;;;28.89;49.49;98597.56;4372845;32;34161;-71
2023/08/28 06:36:08;;;;;;;6.40;4.60;;;;;;;28.53;50.09;98588.94;4367957;32;34184;-70
2023/08/28 06:38:36;;;;;;;6.80;4.22;;;;;;;28.86;48.92;98592.56;4373348;32;34265;-71
2023/08/28 06:41:03;;;;;;;8.07;4.90;;;;;;;28.74;49.18;98580.91;4375615;32;34394;-71
2023/08/28 06:43:31;;;;;;;6.95;4.72;;;;;;;28.48;50.79;98574.31;4375513;32;34688;-70
2023/08/28 06:45:58;;;;;;;8.60;6.00;;;;;;;29.09;49.36;98565.78;4375659;32;35148;-70
2023/08/28 06:48:26;;;;;;;7.70;4.68;;;;;;;29.07;49.21;98571.56;4373435;32;34004;-70
2023/08/28 06:50:56;;;;;;;10.63;4.43;;;;;;;29.47;48.40;98564.66;4375718;32;33584;-71
2023/08/28 06:53:25;;;;;;;13.07;5.18;;;;;;;29.62;47.54;98559.25;4366726;32;33830;-71
2023/08/28 06:55:53;;;;;;;8.45;5.80;;;;;;;29.10;48.73;98556.44;4367759;32;34861;-71
2023/08/28 06:58:20;;;;;;;8.15;4.75;;;;;;;29.34;48.43;98549.44;4372144;32;34088;-71
2023/08/28 07:00:48;;;;;;;7.10;4.28;;;;;;;29.26;48.46;98549.94;4370966;32;33331;-71
2023/08/28 07:03:16;;;;;;;8.07;5.07;;;;;;;29.30;48.40;98536.44;4367815;32;128473;-71
2023/08/28 07:05:44;;;;;;;7.45;5.12;;;;;;;29.28;48.71;98538.63;4371402;32;33943;-72
2023/08/28 07:08:11;;;;;;;8.70;5.15;;;;;;;29.05;49.17;98526.06;4374219;32;33854;-71
2023/08/28 07:10:39;;;;;;;8.52;5.85;;;;;;;28.95;49.94;98526.81;4367672;32;33372;-71
2023/08/28 07:13:06;;;;;;;9.60;5.78;;;;;;;28.67;50.21;98514.19;4368049;32;33779;-71
2023/08/28 07:15:34;;;;;;;12.45;8.02;;;;;;;28.15;52.13;98515.59;4374599;32;34027;-71
2023/08/28 07:18:03;;;;;;;11.60;6.93;;;;;;;28.45;50.42;98515.09;4373191;32;35112;-71
2023/08/28 07:20:31;;;;;;;14.30;9.27;;;;;;;28.45;50.25;98522.53;4367413;32;33300;-71
2023/08/28 07:22:59;;;;;;;17.27;8.75;;;;;;;28.40;50.59;98516.97;4375396;32;33839;-71
2023/08/28 07:25:27;;;;;;;11.27;6.25;;;;;;;27.86;51.47;98517.72;4372810;32;35328;-71
2023/08/28 07:27:55;;;;;;;22.58;6.55;;;;;;;28.32;50.22;98515.50;4372370;32;34121;-71
2023/08/28 07:30:23;;;;;;;17.30;7.43;;;;;;;28.54;50.05;98523.72;4372340;32;34577;-71
2023/08/28 07:32:51;;;;;;;13.25;7.00;;;;;;;28.51;49.55;98530.59;4374137;32;33786;-71
2023/08/28 07:35:18;;;;;;;15.10;7.43;;;;;;;28.52;50.00;98523.97;4373512;32;33879;-71
2023/08/28 07:37:46;;;;;;;11.95;7.00;;;;;;;28.53;49.68;98527.56;4373285;32;35166;-71
2023/08/28 07:40:14;;;;;;;12.32;7.95;;;;;;;28.50;50.23;98536.34;4374917;32;33744;-72
2023/08/28 07:42:42;;;;;;;14.18;7.05;;;;;;;28.29;50.46;98544.38;4373024;32;34513;-72
2023/08/28 07:45:09;;;;;;;14.55;7.07;;;;;;;28.41;50.72;98547.00;4372776;32;33955;-71
2023/08/28 07:47:38;;;;;;;15.55;9.52;;;;;;;28.59;49.63;98553.22;4373493;32;35002;-70
2023/08/28 07:50:06;;;;;;;24.92;8.70;;;;;;;28.87;49.40;98550.16;4372498;32;33315;-71
2023/08/28 07:52:33;;;;;;;10.48;7.82;;;;;;;28.95;49.26;98541.41;4373687;32;35035;-71
2023/08/28 07:55:02;;;;;;;13.73;7.05;;;;;;;29.01;49.33;98539.56;4374557;32;34184;-71
2023/08/28 07:57:34;;;;;;;8.85;6.53;;;;;;;28.95;49.03;98546.91;4374427;32;34069;-71
2023/08/28 08:00:12;;;;;;;11.20;7.15;;;;;;;28.55;50.54;98541.91;4374091;32;33352;-71
2023/08/28 08:02:40;;;;;;;12.32;7.68;;;;;;;29.10;49.21;98549.00;4372668;32;34785;-71
2023/08/28 08:05:11;;;;;;;11.25;8.20;;;;;;;29.09;49.03;98533.56;4373611;32;32864;-72
2023/08/28 08:07:39;;;;;;;12.05;8.65;;;;;;;29.19;48.94;98541.06;4369305;32;34280;-71
2023/08/28 08:10:11;;;;;;;10.18;7.00;;;;;;;29.35;49.30;98536.50;4373810;32;34811;-71
2023/08/28 08:12:38;;;;;;;18.30;8.80;;;;;;;29.28;49.12;98535.88;4375352;32;33624;-72
2023/08/28 08:15:07;;;;;;;12.73;8.57;;;;;;;29.23;48.88;98532.00;4373000;32;34573;-72
2023/08/28 08:17:38;;;;;;;16.70;12.10;;;;;;;28.98;49.58;98529.84;4375952;32;33782;-72
2023/08/28 08:20:10;;;;;;;11.60;7.75;;;;;;;28.89;49.71;98520.44;4341199;33;33324;-71
2023/08/28 08:22:39;;;;;;;15.95;11.05;;;;;;;28.59;51.09;98522.94;4338897;33;33291;-71
2023/08/28 08:25:07;;;;;;;17.67;10.95;;;;;;;28.78;50.54;98510.44;4344220;33;33793;-71
2023/08/28 08:27:34;;;;;;;17.33;10.90;;;;;;;29.02;50.00;98505.41;4340814;33;34005;-72
2023/08/28 08:30:02;;;;;;;17.12;8.50;;;;;;;28.93;50.07;98502.28;4342373;33;34342;-70
2023/08/28 08:32:30;;;;;;;16.37;11.77;;;;;;;29.02;49.99;98500.75;4341338;33;33258;-70
2023/08/28 08:34:59;;;;;;;13.48;8.00;;;;;;;29.21;50.59;98494.78;4344134;33;33896;-71
2023/08/28 08:37:27;;;;;;;18.85;11.10;;;;;;;29.25;49.11;98491.25;4342258;33;33855;-71
2023/08/28 08:39:54;;;;;;;12.57;8.23;;;;;;;29.12;50.52;98497.22;4339706;33;33224;-72
2023/08/28 08:42:22;;;;;;;17.55;11.70;;;;;;;29.36;49.83;98488.53;4341541;33;34898;-71
2023/08/28 08:44:50;;;;;;;16.45;9.85;;;;;;;29.42;49.87;98491.03;4341760;33;33993;-70
2023/08/28 08:47:18;;;;;;;14.82;9.82;;;;;;;29.81;49.19;98493.44;4340882;33;34972;-70
2023/08/28 08:49:51;;;;;;;16.58;9.77;;;;;;;29.86;48.17;98504.50;4332355;33;34344;-70
2023/08/28 08:52:20;;;;;;;14.05;9.38;;;;;;;29.46;48.91;98500.44;4359724;32;33783;-70
2023/08/28 08:54:54;;;;;;;17.37;11.00;;;;;;;29.78;48.45;98493.16;4350747;32;33909;-71
2023/08/28 08:57:26;;;;;;;21.10;10.73;;;;;;;29.78;48.50;98499.50;4366319;32;33947;-70
2023/08/28 08:59:54;;;;;;;15.27;9.20;;;;;;;30.02;48.16;98504.56;4366135;32;33569;-72
2023/08/28 09:02:21;;;;;;;19.40;9.77;;;;;;;29.35;49.58;98504.25;4366108;32;34429;-71
2023/08/28 09:04:49;;;;;;;16.80;9.70;;;;;;;29.79;48.06;98501.19;4365387;32;33737;-72
2023/08/28 09:07:18;;;;;;;12.93;8.75;;;;;;;30.02;47.96;98504.56;4368073;32;34929;-71
2023/08/28 09:09:46;;;;;;;21.33;10.70;;;;;;;30.42;46.95;98505.78;4354238;32;33381;-72
2023/08/28 09:12:16;;;;;;;18.10;12.20;;;;;;;30.46;47.40;98506.87;4375430;32;34746;-71
2023/08/28 09:14:43;;;;;;;14.70;10.95;;;;;;;30.43;46.77;98507.41;4373070;32;32744;-71
2023/08/28 09:17:11;;;;;;;15.60;9.30;;;;;;;30.73;46.52;98509.38;4374079;32;33841;-70
2023/08/28 09:19:39;;;;;;;16.80;11.70;;;;;;;30.88;46.22;98495.59;4370234;32;33655;-72
2023/08/28 09:22:06;;;;;;;17.73;10.80;;;;;;;30.52;46.78;98495.56;4372487;32;34595;-70
2023/08/28 09:24:36;;;;;;;16.35;10.02;;;;;;;30.77;45.97;98494.78;4363548;32;34043;-70
2023/08/28 09:27:04;;;;;;;20.12;11.45;;;;;;;31.09;45.86;98485.34;4344386;32;32981;-70
2023/08/28 09:29:37;;;;;;;19.30;9.85;;;;;;;31.25;45.61;98489.72;4344011;32;33575;-70
2023/08/28 09:32:05;;;;;;;13.48;9.38;;;;;;;31.35;45.59;98479.78;4339551;32;34728;-70
2023/08/28 09:34:42;;;;;;;19.85;10.45;;;;;;;31.40;44.67;98469.53;4347627;32;33606;-70
2023/08/28 09:37:11;;;;;;;17.33;10.73;;;;;;;31.29;44.86;98473.41;4348112;32;34056;-70
2023/08/28 09:39:42;;;;;;;14.52;9.90;;;;;;;31.35;45.83;98458.50;4345028;32;33335;-69
2023/08/28 09:42:10;;;;;;;17.05;10.57;;;;;;;31.59;45.36;98466.12;4344962;32;33464;-71
2023/08/28 09:44:38;;;;;;;14.18;11.35;;;;;;;31.25;45.05;98459.31;4345113;32;34905;-71
2023/08/28 09:47:06;;;;;;;17.48;10.70;;;;;;;31.23;45.70;98457.94;4347595;32;35231;-70
2023/08/28 09:49:42;;;;;;;13.98;10.50;;;;;;;31.66;44.88;98450.09;4327210;32;33644;-70
2023/08/28 09:52:11;;;;;;;19.15;10.77;;;;;;;32.05;44.24;98452.94;4348382;32;32402;-69
2023/08/28 09:54:39;;;;;;;14.05;10.50;;;;;;;32.06;44.18;98448.22;4345178;32;33772;-69
2023/08/28 09:57:16;;;;;;;17.62;10.52;;;;;;;32.23;43.81;98449.50;4332572;32;34201;-69
2023/08/28 09:59:44;;;;;;;18.75;10.90;;;;;;;32.03;43.48;98438.56;4367187;32;33917;-69
2023/08/28 10:02:13;;;;;;;15.13;9.77;;;;;;;32.13;44.71;98432.13;4369194;32;34342;-69
2023/08/28 10:04:52;;;;;;;17.62;10.88;;;;;;;32.37;43.38;98432.22;4355083;32;34875;-70
2023/08/28 10:07:22;;;;;;;21.08;11.40;;;;;;;32.50;42.12;98434.38;4367146;32;35213;-71
2023/08/28 10:09:51;;;;;;;21.17;10.30;;;;;;;32.61;40.74;98419.28;4367831;32;33507;-70
2023/08/28 10:12:21;;;;;;;12.00;9.07;;;;;;;32.39;41.73;98417.00;4368217;32;33993;-70
2023/08/28 10:14:49;;;;;;;13.60;9.05;;;;;;;32.65;40.21;98409.31;4366203;32;34112;-71
2023/08/28 10:17:17;;;;;;;14.77;8.70;;;;;;;32.56;39.91;98407.47;4356384;32;34291;-70
2023/08/28 10:19:57;;;;;;;19.40;8.70;;;;;;;32.58;40.62;98413.50;4341028;32;33290;-70
2023/08/28 10:22:26;;;;;;;13.75;8.48;;;;;;;32.80;39.02;98407.50;4317151;33;31998;-71
2023/08/28 10:24:57;;;;;;;15.20;8.57;;;;;;;32.90;39.02;98396.28;4317237;33;33675;-70
2023/08/28 10:27:25;;;;;;;13.25;8.23;;;;;;;32.80;38.66;98402.78;4303831;33;35455;-69
2023/08/28 10:29:53;;;;;;;16.55;9.80;;;;;;;32.97;37.98;98396.84;4311198;33;33775;-69
2023/08/28 10:32:22;;;;;;;13.43;8.85;;;;;;;33.17;37.85;98398.53;4310348;33;33702;-69
2023/08/28 10:34:51;;;;;;;14.50;9.40;;;;;;;33.21;38.17;98398.78;4318348;33;34925;-70
2023/08/28 10:37:19;;;;;;;12.15;8.93;;;;;;;33.40;38.15;98394.91;4314363;33;34134;-69
2023/08/28 10:40:01;;;;;;;15.50;8.93;;;;;;;33.72;36.97;98395.38;4309908;33;33648;-70
2023/08/28 10:42:30;;;;;;;16.33;9.57;;;;;;;33.99;36.66;98391.91;4308660;33;36293;-72
2023/08/28 10:44:58;;;;;;;13.27;8.63;;;;;;;33.81;37.03;98388.03;4311009;33;33734;-72
2023/08/28 10:47:28;;;;;;;12.93;8.13;;;;;;;33.84;37.50;98384.66;4311629;33;34191;-72
2023/08/28 10:49:56;;;;;;;15.68;9.15;;;;;;;34.24;36.31;98385.97;4313326;33;33447;-72
2023/08/28 10:52:28;;;;;;;15.73;8.80;;;;;;;34.33;37.12;98388.91;4315669;33;33605;-73
2023/08/28 10:54:57;;;;;;;13.02;9.15;;;;;;;34.63;36.27;98381.19;4333891;32;33385;-73
2023/08/28 10:57:28;;;;;;;17.75;8.48;;;;;;;34.19;37.02;98388.00;4341680;32;32608;-72
2023/08/28 11:00:20;;;;;;;15.63;8.90;;;;;;;34.56;36.85;98376.03;4366541;32;33825;-73
2023/08/28 11:03:08;;;;;;;13.85;8.98;;;;;;;34.27;36.22;98379.81;4367875;32;34545;-72
2023/08/28 11:05:39;;;;;;;12.45;8.25;;;;;;;34.67;36.01;98380.28;4365458;32;35302;-72
2023/08/28 11:08:09;;;;;;;15.07;9.02;;;;;;;35.05;35.08;98377.34;4367751;32;34159;-72
2023/08/28 11:10:38;;;;;;;17.83;8.35;;;;;;;34.61;35.20;98366.75;4370379;32;34268;-72
2023/08/28 11:13:06;;;;;;;17.17;8.23;;;;;;;34.76;34.65;98363.72;4374279;32;33730;-71
2023/08/28 11:15:35;;;;;;;16.15;8.45;;;;;;;34.94;34.58;98365.59;4370221;32;35605;-71
2023/08/28 11:18:24;;;;;;;16.50;8.57;;;;;;;34.77;35.23;98365.38;4357723;32;33894;-72
2023/08/28 11:20:53;;;;;;;12.77;7.85;;;;;;;34.89;34.74;98354.56;4369903;32;32969;-72
2023/08/28 11:23:35;;;;;;;15.60;8.23;;;;;;;35.13;33.67;98353.56;4360658;32;33580;-72
2023/08/28 11:26:26;;;;;;;15.70;8.95;;;;;;;34.93;33.40;98354.75;4376179;32;32747;-71
2023/08/28 11:28:53;;;;;;;16.12;8.02;;;;;;;34.65;34.42;98357.53;4366494;32;35224;-71
2023/08/28 11:31:33;;;;;;;12.45;8.27;;;;;;;35.16;33.84;98355.75;4369941;32;33603;-73
2023/08/28 11:34:00;;;;;;;14.35;8.52;;;;;;;35.23;33.58;98356.13;4369611;32;33732;-72
2023/08/28 11:36:37;;;;;;;14.57;8.35;;;;;;;35.37;33.02;98354.16;4368649;32;32236;-72
2023/08/28 11:39:05;;;;;;;15.18;9.35;;;;;;;35.13;33.70;98345.22;4368569;32;34239;-71